Time;durP1;ratioP1;P1;durP2;ratioP2;P2;SDS_P1;SDS_P2;PMS_P1;PMS_P2;Temp;Humidity;BMP_temperature;BMP_pressure;BME280_temperature;BME280_humidity;BME280_pressure;Samples;Min_cycle;Max_cycle;Signal;HPM_P1;HPM_P2
2021/12/07 00:02:21;;;;;;;;;;;;;;;7.31;79.97;100783.59;5061647;28;20272;-63
2021/12/07 00:04:49;;;;;;;;;;;;;;;7.22;80.39;100800.97;5075100;28;19935;-63
2021/12/07 00:07:17;;;;;;;;;;;;;;;7.16;80.49;100804.84;5064798;28;19931;-63
2021/12/07 00:09:49;;;;;;;;;;;;;;;7.19;80.44;100798.78;5058780;28;19999;-62
2021/12/07 00:12:16;;;;;;;;;;;;;;;7.24;80.58;100799.56;5061656;28;19921;-64
2021/12/07 00:14:44;;;;;;;;;;;;;;;7.43;79.40;100792.25;5056933;28;20277;-65
2021/12/07 00:17:11;;;;;;;;;;;;;;;7.35;79.02;100801.09;5057238;28;19920;-65
2021/12/07 00:19:38;;;;;;;;;;;;;;;7.37;78.44;100809.03;5056397;28;19932;-64
2021/12/07 00:22:08;;;;;;;;;;;;;;;7.39;78.59;100802.13;5059916;28;19921;-65
2021/12/07 00:24:38;;;;;;;;;;;;;;;7.55;77.77;100789.13;5068955;28;20276;-66
2021/12/07 00:27:05;;;;;;;;;;;;;;;7.46;77.88;100788.91;5055840;28;19928;-66
2021/12/07 00:29:32;;;;;;;;;;;;;;;7.29;78.53;100793.22;5056791;28;19947;-64
2021/12/07 00:32:27;;;;;;;;;;;;;;;7.41;78.05;100805.41;5064038;28;19921;-64
2021/12/07 00:37:31;;;;;;;;;;;;;;;7.23;78.53;100797.13;5063076;28;19920;-65
2021/12/07 00:39:58;;;;;;;;;;;;;;;7.33;78.14;100807.97;5056672;28;19920;-65
2021/12/07 00:42:25;;;;;;;;;;;;;;;7.23;77.97;100814.38;5067409;28;19920;-64
2021/12/07 00:44:52;;;;;;;;;;;;;;;7.33;77.73;100821.66;5055528;28;19928;-65
2021/12/07 00:47:19;;;;;;;;;;;;;;;7.34;77.39;100817.84;5061806;28;19920;-65
2021/12/07 00:49:46;;;;;;;;;;;;;;;7.41;77.12;100815.56;5075626;28;19920;-66
2021/12/07 00:52:13;;;;;;;;;;;;;;;7.24;77.71;100820.66;5074106;28;19927;-64
2021/12/07 00:54:41;;;;;;;;;;;;;;;7.21;77.57;100816.59;5072746;28;19925;-65
2021/12/07 00:57:08;;;;;;;;;;;;;;;7.42;77.22;100819.94;5059218;28;19957;-64
2021/12/07 00:59:37;;;;;;;;;;;;;;;7.46;76.46;100824.53;5072198;28;19920;-65
2021/12/07 01:02:05;;;;;;;;;;;;;;;7.17;77.10;100829.22;5061701;28;19931;-66
2021/12/07 01:04:32;;;;;;;;;;;;;;;7.12;78.08;100834.75;5062669;28;19928;-66
2021/12/07 01:07:07;;;;;;;;;;;;;;;7.24;78.30;100828.88;5064360;28;19924;-64
2021/12/07 01:09:41;;;;;;;;;;;;;;;7.02;77.91;100820.31;5054726;28;20372;-65
2021/12/07 01:25:59;;;;;;;;;;;;;;;6.88;78.53;100819.34;5071152;28;20341;-65
2021/12/07 01:28:35;;;;;;;;;;;;;;;6.95;78.77;100811.63;5058473;28;19920;-65
2021/12/07 01:33:56;;;;;;;;;;;;;;;6.81;78.64;100820.50;5057675;28;20275;-65
2021/12/07 01:46:58;;;;;;;;;;;;;;;6.89;79.79;100834.69;5050987;28;19921;-65
2021/12/07 02:00:11;;;;;;;;;;;;;;;6.75;80.67;100824.38;5054279;28;19920;-66
2021/12/07 02:02:38;;;;;;;;;;;;;;;6.69;80.90;100828.25;5059357;28;20288;-64
2021/12/07 02:05:07;;;;;;;;;;;;;;;6.75;80.56;100829.84;5055311;28;20281;-64
2021/12/07 02:07:35;;;;;;;;;;;;;;;6.82;80.28;100835.00;5049310;28;19920;-65
2021/12/07 02:10:11;;;;;;;;;;;;;;;6.66;80.74;100836.19;5065017;28;19924;-66
2021/12/07 02:12:44;;;;;;;;;;;;;;;6.65;80.94;100831.84;5070746;28;20380;-64
2021/12/07 02:15:14;;;;;;;;;;;;;;;6.88;79.59;100833.88;5066362;28;20061;-65
2021/12/07 02:17:41;;;;;;;;;;;;;;;6.79;79.43;100830.94;5073222;28;20406;-64
2021/12/07 02:20:09;;;;;;;;;;;;;;;6.97;78.67;100845.03;5075480;28;19929;-65
2021/12/07 02:22:36;;;;;;;;;;;;;;;6.84;79.03;100836.34;5074862;28;19927;-65
2021/12/07 02:25:04;;;;;;;;;;;;;;;6.84;78.95;100838.28;5057468;28;19925;-65
2021/12/07 02:27:32;;;;;;;;;;;;;;;7.13;78.53;100844.59;5058655;28;19924;-64
2021/12/07 02:30:04;;;;;;;;;;;;;;;6.97;77.95;100850.50;5064865;28;20406;-65
2021/12/07 02:32:32;;;;;;;;;;;;;;;6.67;78.88;100852.38;5074077;28;19932;-65
2021/12/07 02:35:00;;;;;;;;;;;;;;;6.60;79.47;100845.56;5063679;28;19924;-65
2021/12/07 02:37:30;;;;;;;;;;;;;;;6.91;79.04;100854.38;5056188;28;20486;-65
2021/12/07 02:39:58;;;;;;;;;;;;;;;6.66;79.10;100849.88;5067793;28;19927;-64
2021/12/07 02:42:26;;;;;;;;;;;;;;;6.70;79.63;100849.06;5052028;28;19927;-65
2021/12/07 02:44:53;;;;;;;;;;;;;;;6.81;79.32;100842.41;5064141;28;19924;-64
2021/12/07 02:47:21;;;;;;;;;;;;;;;6.81;79.37;100833.38;5062308;28;19951;-65
2021/12/07 02:49:48;;;;;;;;;;;;;;;6.84;79.05;100841.00;5057855;28;19924;-65
2021/12/07 02:52:15;;;;;;;;;;;;;;;6.54;80.59;100841.22;5071440;28;20493;-65
2021/12/07 02:54:49;;;;;;;;;;;;;;;6.66;80.10;100838.94;5050905;28;20380;-65
2021/12/07 02:57:21;;;;;;;;;;;;;;;6.92;79.53;100832.19;5072685;28;19932;-64
2021/12/07 03:00:01;;;;;;;;;;;;;;;7.02;78.80;100826.63;5072338;28;20372;-64
2021/12/07 03:02:34;;;;;;;;;;;;;;;6.87;79.25;100825.94;5072666;28;19928;-65
2021/12/07 03:05:19;;;;;;;;;;;;;;;6.68;79.32;100834.84;5056528;28;20437;-64
2021/12/07 03:26:49;;;;;;;;;;;;;;;6.60;80.16;100854.59;5059092;28;20027;-64
2021/12/07 03:29:16;;;;;;;;;;;;;;;6.52;80.24;100868.88;5054514;28;19935;-64
2021/12/07 03:31:45;;;;;;;;;;;;;;;6.59;80.20;100865.84;5055248;28;20327;-64
2021/12/07 03:34:12;;;;;;;;;;;;;;;6.73;80.01;100867.63;5071554;28;20448;-66
2021/12/07 03:36:39;;;;;;;;;;;;;;;6.75;79.74;100862.69;5066676;28;20344;-65
2021/12/07 03:39:06;;;;;;;;;;;;;;;6.55;80.50;100872.97;5069024;28;19919;-65
2021/12/07 03:41:34;;;;;;;;;;;;;;;6.65;80.45;100865.50;5077656;28;19928;-64
2021/12/07 03:44:01;;;;;;;;;;;;;;;6.96;79.43;100871.56;5071389;28;19921;-66
2021/12/07 03:46:29;;;;;;;;;;;;;;;6.87;79.12;100859.59;5043562;28;19921;-65
2021/12/07 03:48:57;;;;;;;;;;;;;;;6.75;79.07;100840.81;5056285;28;19944;-65
2021/12/07 03:51:24;;;;;;;;;;;;;;;6.66;79.29;100838.94;5066563;28;20418;-64
2021/12/07 03:53:54;;;;;;;;;;;;;;;6.73;79.11;100855.84;5054909;28;19921;-65
2021/12/07 03:56:21;;;;;;;;;;;;;;;6.56;79.57;100856.25;5038016;28;19925;-65
2021/12/07 03:58:48;;;;;;;;;;;;;;;6.35;80.56;100854.75;5069425;28;20383;-66
2021/12/07 04:01:16;;;;;;;;;;;;;;;6.56;79.79;100850.78;5061646;28;20383;-65
2021/12/07 04:03:45;;;;;;;;;;;;;;;6.38;79.78;100836.97;5057402;28;19920;-64
2021/12/07 04:06:15;;;;;;;;;;;;;;;6.08;80.79;100832.47;5073125;28;19927;-65
2021/12/07 04:08:42;;;;;;;;;;;;;;;6.12;81.63;100833.53;5061652;28;20277;-65
2021/12/07 04:11:13;;;;;;;;;;;;;;;6.22;81.48;100827.19;5072816;28;19927;-65
2021/12/07 04:13:43;;;;;;;;;;;;;;;6.45;80.15;100824.59;5070153;28;19920;-64
2021/12/07 04:16:11;;;;;;;;;;;;;;;6.55;79.90;100842.88;5061689;28;19920;-64
2021/12/07 04:18:41;;;;;;;;;;;;;;;6.37;79.83;100844.34;5071116;28;20303;-64
2021/12/07 04:21:09;;;;;;;;;;;;;;;6.37;79.91;100849.00;5057895;28;20562;-65
2021/12/07 04:23:36;;;;;;;;;;;;;;;6.35;79.95;100846.53;5072971;28;19920;-65
2021/12/07 04:26:05;;;;;;;;;;;;;;;6.34;79.70;100838.63;5071164;28;19921;-65
2021/12/07 04:28:32;;;;;;;;;;;;;;;6.21;80.27;100840.06;5056925;28;19939;-66
2021/12/07 04:30:59;;;;;;;;;;;;;;;6.43;79.90;100843.19;5064782;28;19924;-64
2021/12/07 04:33:29;;;;;;;;;;;;;;;6.41;79.29;100850.06;5071060;28;19920;-64
2021/12/07 04:35:57;;;;;;;;;;;;;;;6.34;79.54;100844.91;5071873;28;20288;-65
2021/12/07 04:38:24;;;;;;;;;;;;;;;6.63;78.46;100837.59;5070383;28;19925;-64
2021/12/07 04:40:52;;;;;;;;;;;;;;;6.55;78.52;100840.97;5057475;28;19921;-65
2021/12/07 04:43:19;;;;;;;;;;;;;;;6.27;78.87;100836.19;5055390;28;19939;-65
2021/12/07 04:59:22;;;;;;;;;;;;;;;6.18;80.08;100837.88;5053826;28;20312;-66
2021/12/07 05:01:49;;;;;;;;;;;;;;;5.96;81.27;100844.81;5059370;28;19927;-65
2021/12/07 05:04:21;;;;;;;;;;;;;;;5.85;81.74;100835.84;5074687;28;19920;-64
2021/12/07 05:06:53;;;;;;;;;;;;;;;5.92;81.97;100836.38;5045179;28;19921;-65
2021/12/07 05:11:53;;;;;;;;;;;;;;;5.90;81.28;100833.09;5040512;28;19929;-65
2021/12/07 05:14:26;;;;;;;;;;;;;;;5.93;81.71;100832.53;5067009;28;19935;-66
2021/12/07 05:38:35;;;;;;;;;;;;;;;5.85;82.81;100838.59;5057514;28;19920;-66
2021/12/07 05:41:02;;;;;;;;;;;;;;;5.75;83.25;100846.78;5088550;28;19931;-65
2021/12/07 05:43:30;;;;;;;;;;;;;;;5.83;82.93;100840.78;5068859;28;19927;-65
2021/12/07 05:45:57;;;;;;;;;;;;;;;5.82;82.95;100841.84;5071918;28;20438;-66
2021/12/07 05:48:25;;;;;;;;;;;;;;;5.67;82.32;100839.97;5063744;28;19921;-65
2021/12/07 05:50:52;;;;;;;;;;;;;;;5.62;83.55;100844.63;5054109;28;19921;-66
2021/12/07 05:53:19;;;;;;;;;;;;;;;5.85;82.61;100846.78;5065219;28;19940;-65
2021/12/07 05:55:46;;;;;;;;;;;;;;;5.76;82.70;100853.88;5058934;28;19920;-64
2021/12/07 05:58:13;;;;;;;;;;;;;;;5.82;82.32;100849.22;5051292;28;19928;-66
2021/12/07 06:00:43;;;;;;;;;;;;;;;5.43;84.04;100852.63;5075315;28;20419;-65
2021/12/07 06:03:10;;;;;;;;;;;;;;;5.43;84.68;100855.34;5061747;28;19928;-65
2021/12/07 06:05:38;;;;;;;;;;;;;;;5.54;84.06;100858.88;5068326;28;19921;-65
2021/12/07 06:08:05;;;;;;;;;;;;;;;5.61;83.59;100856.66;5076328;28;20356;-66
2021/12/07 06:10:33;;;;;;;;;;;;;;;5.66;83.69;100851.19;5060268;28;19939;-65
2021/12/07 06:13:00;;;;;;;;;;;;;;;5.95;82.79;100840.44;5064087;28;20711;-65
2021/12/07 06:15:31;;;;;;;;;;;;;;;5.92;82.52;100838.28;5071642;28;20378;-65
2021/12/07 06:17:58;;;;;;;;;;;;;;;5.94;82.17;100839.66;5070107;28;19920;-66
2021/12/07 06:20:25;;;;;;;;;;;;;;;5.96;82.04;100837.47;5078195;28;19920;-65
2021/12/07 06:23:11;;;;;;;;;;;;;;;5.87;82.32;100819.16;5064764;28;19920;-64
2021/12/07 06:25:38;;;;;;;;;;;;;;;5.62;83.01;100815.41;5057136;28;19932;-65
2021/12/07 06:28:05;;;;;;;;;;;;;;;5.69;82.95;100806.91;5027058;28;19924;-66
2021/12/07 06:30:38;;;;;;;;;;;;;;;5.68;83.16;100810.75;5063740;28;20308;-66
2021/12/07 06:33:05;;;;;;;;;;;;;;;5.65;82.70;100805.81;5064787;28;19936;-66
2021/12/07 06:35:32;;;;;;;;;;;;;;;5.43;83.79;100802.63;5056327;28;19928;-66
2021/12/07 06:37:59;;;;;;;;;;;;;;;5.49;83.84;100796.06;5057087;28;19947;-66
2021/12/07 06:40:26;;;;;;;;;;;;;;;5.69;83.04;100795.97;5067192;28;19921;-65
2021/12/07 06:42:59;;;;;;;;;;;;;;;5.62;83.36;100793.53;5066606;28;19931;-66
2021/12/07 06:45:27;;;;;;;;;;;;;;;5.78;83.32;100799.78;5073155;28;20430;-65
2021/12/07 06:47:54;;;;;;;;;;;;;;;5.64;83.11;100796.00;5056647;28;20023;-65
2021/12/07 06:50:21;;;;;;;;;;;;;;;5.59;83.67;100801.47;5059327;28;20292;-66
2021/12/07 06:52:48;;;;;;;;;;;;;;;5.49;83.98;100793.31;5071385;28;20351;-65
2021/12/07 06:55:15;;;;;;;;;;;;;;;5.40;84.59;100784.06;5057324;28;20287;-65
2021/12/07 06:57:42;;;;;;;;;;;;;;;5.46;84.26;100778.28;5063408;28;20368;-65
2021/12/07 07:00:11;;;;;;;;;;;;;;;5.44;84.62;100775.03;5065996;28;19921;-67
2021/12/07 07:02:38;;;;;;;;;;;;;;;5.04;85.71;100780.56;5060186;28;19921;-65
2021/12/07 07:05:05;;;;;;;;;;;;;;;5.21;86.05;100774.81;5060931;28;19928;-65
2021/12/07 07:07:34;;;;;;;;;;;;;;;5.01;86.02;100774.84;5067945;28;20399;-65
2021/12/07 07:10:01;;;;;;;;;;;;;;;5.07;86.39;100754.66;5065444;28;20283;-66
2021/12/07 07:12:28;;;;;;;;;;;;;;;5.15;86.21;100751.34;5056501;28;19928;-66
2021/12/07 07:14:55;;;;;;;;;;;;;;;5.27;85.93;100752.69;5053803;28;19932;-66
2021/12/07 07:17:22;;;;;;;;;;;;;;;5.19;85.97;100753.25;5055851;28;19928;-66
2021/12/07 07:19:49;;;;;;;;;;;;;;;5.22;85.99;100752.69;5059250;28;19920;-65
2021/12/07 07:22:16;;;;;;;;;;;;;;;5.23;86.15;100740.69;5071238;28;19920;-64
2021/12/07 07:24:45;;;;;;;;;;;;;;;5.05;86.87;100735.81;5076873;28;20245;-66
2021/12/07 07:27:13;;;;;;;;;;;;;;;5.10;87.21;100738.53;5057699;28;19924;-65
2021/12/07 07:29:40;;;;;;;;;;;;;;;5.38;88.51;100734.34;5069596;28;19925;-65
2021/12/07 07:32:07;;;;;;;;;;;;;;;5.50;87.81;100724.75;5069935;28;19920;-65
2021/12/07 07:34:34;;;;;;;;;;;;;;;5.38;87.46;100717.97;5063326;28;19920;-67
2021/12/07 07:37:01;;;;;;;;;;;;;;;5.71;89.41;100707.16;5056656;28;19924;-68
2021/12/07 07:39:28;;;;;;;;;;;;;;;5.81;88.49;100703.53;5059597;28;19920;-69
2021/12/07 07:41:55;;;;;;;;;;;;;;;5.85;86.24;100709.28;5055047;28;19920;-65
2021/12/07 07:44:29;;;;;;;;;;;;;;;5.97;85.86;100702.38;5058443;28;19985;-66
2021/12/07 07:46:56;;;;;;;;;;;;;;;5.91;86.31;100695.31;5067143;28;19920;-65
2021/12/07 07:49:23;;;;;;;;;;;;;;;6.09;85.77;100691.91;5055873;28;19932;-68
2021/12/07 07:51:51;;;;;;;;;;;;;;;6.11;86.07;100697.09;5062644;28;19928;-64
2021/12/07 07:54:18;;;;;;;;;;;;;;;6.33;86.14;100694.75;5070356;28;19927;-65
2021/12/07 07:56:45;;;;;;;;;;;;;;;6.47;84.11;100685.59;5057168;28;19920;-65
2021/12/07 07:59:12;;;;;;;;;;;;;;;6.06;83.47;100687.03;5069930;28;19921;-65
2021/12/07 08:01:39;;;;;;;;;;;;;;;5.94;83.97;100680.25;5057512;28;19920;-66
2021/12/07 08:04:07;;;;;;;;;;;;;;;5.89;84.95;100683.03;5055571;28;20267;-66
2021/12/07 08:06:34;;;;;;;;;;;;;;;5.61;85.09;100670.88;5059992;28;19920;-66
2021/12/07 08:09:02;;;;;;;;;;;;;;;5.63;85.17;100672.22;5074891;28;19924;-65
2021/12/07 08:11:29;;;;;;;;;;;;;;;5.54;85.65;100662.19;5075241;28;20389;-65
2021/12/07 08:13:56;;;;;;;;;;;;;;;5.49;85.77;100659.47;5069932;28;20360;-66
2021/12/07 08:16:25;;;;;;;;;;;;;;;5.36;86.13;100666.34;5068923;28;19957;-68
2021/12/07 08:18:53;;;;;;;;;;;;;;;5.54;86.38;100662.19;5060466;28;20513;-67
2021/12/07 08:21:22;;;;;;;;;;;;;;;5.51;86.66;100663.53;5054837;28;19921;-67
2021/12/07 08:23:49;;;;;;;;;;;;;;;5.63;86.25;100657.75;5060528;28;19931;-66
2021/12/07 08:26:18;;;;;;;;;;;;;;;5.49;86.63;100654.00;5069316;28;19920;-66
2021/12/07 08:28:52;;;;;;;;;;;;;;;5.47;86.52;100648.81;5066407;28;19987;-67
2021/12/07 08:31:20;;;;;;;;;;;;;;;5.60;86.58;100644.63;5064762;28;19921;-66
2021/12/07 08:33:47;;;;;;;;;;;;;;;5.45;86.58;100642.84;5055525;28;20027;-65
2021/12/07 08:36:14;;;;;;;;;;;;;;;5.33;87.14;100630.59;5071089;28;19928;-66
2021/12/07 08:38:41;;;;;;;;;;;;;;;5.33;87.55;100638.78;5064333;28;19921;-67
2021/12/07 08:41:08;;;;;;;;;;;;;;;5.27;86.87;100642.63;5088789;28;19921;-68
2021/12/07 08:43:36;;;;;;;;;;;;;;;5.39;86.97;100630.28;5058148;28;19927;-66
2021/12/07 08:46:04;;;;;;;;;;;;;;;5.70;86.41;100629.00;5070972;28;19932;-67
2021/12/07 08:48:31;;;;;;;;;;;;;;;5.46;86.10;100630.78;5076980;28;20417;-66
2021/12/07 08:50:59;;;;;;;;;;;;;;;5.64;85.47;100623.84;5078464;28;20336;-65
2021/12/07 08:53:26;;;;;;;;;;;;;;;5.49;86.15;100626.69;5057636;28;19931;-66
2021/12/07 09:01:26;;;;;;;;;;;;;;;5.43;86.45;100604.06;5063319;28;19929;-66
2021/12/07 09:03:54;;;;;;;;;;;;;;;5.37;85.91;100583.31;5053914;28;19928;-67
2021/12/07 09:06:21;;;;;;;;;;;;;;;5.18;87.41;100571.41;5058863;28;19924;-66
2021/12/07 09:08:53;;;;;;;;;;;;;;;5.17;88.79;100560.78;5062716;28;19928;-65
2021/12/07 09:11:20;;;;;;;;;;;;;;;5.33;88.57;100557.69;5055048;28;19920;-67
2021/12/07 09:13:47;;;;;;;;;;;;;;;5.37;88.58;100545.09;5037297;28;19928;-68
2021/12/07 09:16:15;;;;;;;;;;;;;;;5.58;87.79;100546.56;5054439;28;19920;-66
2021/12/07 09:18:43;;;;;;;;;;;;;;;5.65;87.33;100558.00;5062222;28;19920;-67
2021/12/07 09:21:10;;;;;;;;;;;;;;;5.78;87.31;100539.31;5073134;28;19920;-66
2021/12/07 09:23:37;;;;;;;;;;;;;;;5.72;87.37;100525.69;5068219;28;19936;-67
2021/12/07 09:26:05;;;;;;;;;;;;;;;5.54;87.80;100518.19;5059467;28;20312;-67
2021/12/07 09:28:34;;;;;;;;;;;;;;;5.43;88.53;100522.13;5057597;28;19921;-66
2021/12/07 09:31:03;;;;;;;;;;;;;;;5.46;88.82;100515.25;5062071;28;19959;-66
2021/12/07 09:33:30;;;;;;;;;;;;;;;5.42;88.86;100517.72;5054777;28;19936;-66
2021/12/07 09:35:58;;;;;;;;;;;;;;;5.25;88.76;100522.78;5057707;28;19920;-67
2021/12/07 09:38:25;;;;;;;;;;;;;;;5.30;89.12;100524.66;5062961;28;20163;-67
2021/12/07 09:40:53;;;;;;;;;;;;;;;5.04;88.81;100524.00;5066388;28;19920;-66
2021/12/07 09:43:20;;;;;;;;;;;;;;;5.23;89.26;100518.72;5058222;28;19939;-66
2021/12/07 09:45:47;;;;;;;;;;;;;;;5.16;89.07;100526.41;5064241;28;19927;-67
2021/12/07 09:48:15;;;;;;;;;;;;;;;5.40;89.26;100524.59;5074297;28;19927;-66
2021/12/07 09:50:43;;;;;;;;;;;;;;;5.30;88.61;100511.81;5057790;28;19936;-67
2021/12/07 09:53:10;;;;;;;;;;;;;;;5.36;88.32;100502.50;5058095;28;20246;-66
2021/12/07 09:55:38;;;;;;;;;;;;;;;5.43;88.39;100515.81;5057113;28;20046;-66
2021/12/07 09:58:05;;;;;;;;;;;;;;;5.34;88.96;100512.06;5057247;28;19948;-66
2021/12/07 10:00:32;;;;;;;;;;;;;;;5.46;89.03;100510.59;5061922;28;19920;-65
2021/12/07 10:03:00;;;;;;;;;;;;;;;5.57;89.27;100516.81;5066264;28;19928;-68
2021/12/07 10:05:29;;;;;;;;;;;;;;;5.55;88.63;100519.84;5057907;28;19940;-68
2021/12/07 10:07:56;;;;;;;;;;;;;;;5.49;88.67;100515.50;5059511;28;19928;-68
2021/12/07 10:10:25;;;;;;;;;;;;;;;5.54;89.42;100512.72;5056356;28;19931;-69
2021/12/07 10:12:52;;;;;;;;;;;;;;;5.99;88.66;100481.50;5059285;28;19920;-68
2021/12/07 10:15:19;;;;;;;;;;;;;;;5.72;88.18;100465.59;5059257;28;19921;-67
2021/12/07 10:17:58;;;;;;;;;;;;;;;5.87;89.24;100472.03;5054136;28;20292;-66
2021/12/07 10:20:38;;;;;;;;;;;;;;;5.65;89.86;100470.56;5057442;28;19929;-68
2021/12/07 10:23:25;;;;;;;;;;;;;;;5.76;90.29;100449.44;5057719;28;19921;-67
2021/12/07 10:26:01;;;;;;;;;;;;;;;5.74;90.40;100446.16;5056474;28;19932;-69
2021/12/07 10:28:31;;;;;;;;;;;;;;;5.82;90.37;100434.63;5055817;28;19927;-66
2021/12/07 10:31:08;;;;;;;;;;;;;;;5.83;90.66;100428.06;5060142;28;19920;-66
2021/12/07 10:33:38;;;;;;;;;;;;;;;6.00;90.19;100424.91;5061452;28;19924;-66
2021/12/07 10:36:06;;;;;;;;;;;;;;;6.19;89.77;100409.38;5061560;28;19952;-67
2021/12/07 10:38:33;;;;;;;;;;;;;;;6.26;88.64;100404.34;5061824;28;20502;-66
2021/12/07 10:41:02;;;;;;;;;;;;;;;6.17;88.84;100393.22;5097944;28;19924;-67
2021/12/07 10:43:43;;;;;;;;;;;;;;;6.26;89.36;100383.28;5087164;28;20339;-66
2021/12/07 10:46:25;;;;;;;;;;;;;;;6.25;89.19;100376.19;5059070;28;19928;-66
2021/12/07 10:49:12;;;;;;;;;;;;;;;6.21;89.67;100361.47;5056546;28;19931;-67
2021/12/07 10:51:40;;;;;;;;;;;;;;;6.04;90.56;100354.84;5062499;28;19920;-66
2021/12/07 10:54:08;;;;;;;;;;;;;;;6.07;91.60;100344.16;5068494;28;19936;-66
2021/12/07 10:56:36;;;;;;;;;;;;;;;6.45;90.08;100334.06;5058277;28;19936;-68
2021/12/07 10:59:07;;;;;;;;;;;;;;;6.39;89.77;100314.19;5059164;28;19940;-66
2021/12/07 11:01:34;;;;;;;;;;;;;;;6.47;89.88;100309.94;5075077;28;19921;-66
2021/12/07 11:04:21;;;;;;;;;;;;;;;6.51;89.87;100306.34;5056385;28;19929;-69
2021/12/07 11:07:06;;;;;;;;;;;;;;;6.60;90.02;100290.88;5056256;28;20256;-66
2021/12/07 11:09:42;;;;;;;;;;;;;;;6.70;88.76;100282.50;5058758;28;19928;-66
2021/12/07 11:12:10;;;;;;;;;;;;;;;6.61;89.00;100267.06;5069071;28;19954;-66
2021/12/07 11:14:50;;;;;;;;;;;;;;;6.98;88.78;100260.69;5059256;28;19931;-66
2021/12/07 11:17:27;;;;;;;;;;;;;;;6.90;87.88;100251.25;5058289;28;20022;-66
2021/12/07 11:19:55;;;;;;;;;;;;;;;6.71;87.87;100229.38;5055207;28;19929;-67
2021/12/07 11:22:23;;;;;;;;;;;;;;;6.98;88.87;100222.34;5057968;28;20328;-65
2021/12/07 11:24:52;;;;;;;;;;;;;;;6.96;87.26;100210.91;5057358;28;19928;-66
2021/12/07 11:30:05;;;;;;;;;;;;;;;7.11;87.48;100185.97;5057589;28;19925;-68
2021/12/07 11:32:33;;;;;;;;;;;;;;;7.23;86.71;100187.09;5055922;28;20308;-67
2021/12/07 11:35:08;;;;;;;;;;;;;;;7.14;86.35;100179.88;5060101;28;19925;-66
2021/12/07 11:37:37;;;;;;;;;;;;;;;7.21;86.47;100163.84;5058018;28;19991;-65
2021/12/07 11:40:05;;;;;;;;;;;;;;;7.04;86.73;100155.44;5074011;28;20440;-68
2021/12/07 11:42:37;;;;;;;;;;;;;;;7.00;87.60;100152.50;5058156;28;19932;-67
2021/12/07 11:45:16;;;;;;;;;;;;;;;7.13;86.98;100150.88;5048797;28;19927;-68
2021/12/07 11:47:55;;;;;;;;;;;;;;;7.04;86.65;100128.06;5059912;28;19939;-66
2021/12/07 11:50:25;;;;;;;;;;;;;;;7.20;88.00;100121.94;5066790;28;19921;-65
2021/12/07 11:53:00;;;;;;;;;;;;;;;7.31;86.46;100112.41;5057301;28;19924;-67
2021/12/07 11:55:27;;;;;;;;;;;;;;;7.49;85.85;100100.53;5073366;28;19921;-65
2021/12/07 11:57:58;;;;;;;;;;;;;;;7.44;85.27;100091.59;5073015;28;19955;-68
2021/12/07 12:00:34;;;;;;;;;;;;;;;7.47;85.77;100077.28;5057246;28;19921;-67
2021/12/07 12:03:08;;;;;;;;;;;;;;;7.48;85.62;100070.69;5056483;28;19935;-65
2021/12/07 12:05:36;;;;;;;;;;;;;;;7.37;85.62;100050.13;5054399;28;19932;-67
2021/12/07 12:08:08;;;;;;;;;;;;;;;7.26;85.96;100044.03;5062805;28;19920;-67
2021/12/07 12:10:40;;;;;;;;;;;;;;;7.17;86.34;100043.16;5071251;28;19931;-67
2021/12/07 12:13:12;;;;;;;;;;;;;;;7.47;85.66;100036.19;5062515;28;19921;-66
2021/12/07 12:15:52;;;;;;;;;;;;;;;7.58;85.25;100021.91;5069536;28;19920;-66
2021/12/07 12:18:19;;;;;;;;;;;;;;;7.74;83.96;100014.94;5066577;28;19921;-66
2021/12/07 12:20:56;;;;;;;;;;;;;;;7.72;83.74;99997.22;5059383;28;19931;-67
2021/12/07 12:23:47;;;;;;;;;;;;;;;7.65;83.63;100005.84;5067208;28;19921;-66
2021/12/07 12:26:17;;;;;;;;;;;;;;;7.71;83.83;99990.09;5061154;28;20295;-66
2021/12/07 12:28:48;;;;;;;;;;;;;;;7.56;84.60;99988.56;5061790;28;19940;-65
2021/12/07 12:31:17;;;;;;;;;;;;;;;7.59;84.49;99970.66;5069204;28;19921;-67
2021/12/07 12:33:44;;;;;;;;;;;;;;;7.79;84.17;99950.97;5060617;28;19920;-67
2021/12/07 12:36:11;;;;;;;;;;;;;;;7.85;83.16;99947.78;5054474;28;19920;-68
2021/12/07 12:38:55;;;;;;;;;;;;;;;7.65;83.87;99931.06;5055874;28;19924;-68
2021/12/07 12:41:22;;;;;;;;;;;;;;;7.64;84.18;99911.06;5070977;28;19921;-67
2021/12/07 12:43:52;;;;;;;;;;;;;;;7.74;84.20;99910.00;5071452;28;20294;-68
2021/12/07 12:46:21;;;;;;;;;;;;;;;7.72;84.12;99891.09;5062425;28;19995;-68
2021/12/07 12:48:50;;;;;;;;;;;;;;;7.60;84.11;99874.44;5055433;28;20295;-68
2021/12/07 12:51:22;;;;;;;;;;;;;;;7.83;83.51;99872.44;5065161;28;19921;-68
2021/12/07 12:53:50;;;;;;;;;;;;;;;7.87;83.62;99863.28;5064412;28;19929;-68
2021/12/07 12:56:23;;;;;;;;;;;;;;;7.86;83.14;99853.44;5062336;28;19920;-67
2021/12/07 12:58:51;;;;;;;;;;;;;;;7.89;82.57;99849.25;5063681;28;19928;-68
2021/12/07 13:01:18;;;;;;;;;;;;;;;7.99;82.49;99846.22;5055657;28;19921;-67
2021/12/07 13:03:48;;;;;;;;;;;;;;;8.15;81.68;99855.66;5055672;28;19928;-68
2021/12/07 13:06:18;;;;;;;;;;;;;;;7.98;82.27;99847.38;5055606;28;19921;-68
2021/12/07 13:08:58;;;;;;;;;;;;;;;7.78;81.87;99848.72;5058309;28;20487;-67
2021/12/07 13:11:34;;;;;;;;;;;;;;;7.67;82.22;99830.16;5059430;28;19928;-66
2021/12/07 13:14:01;;;;;;;;;;;;;;;7.72;82.92;99830.00;5072009;28;19928;-68
2021/12/07 13:16:28;;;;;;;;;;;;;;;8.06;82.18;99821.06;5061695;28;19932;-68
2021/12/07 13:19:06;;;;;;;;;;;;;;;8.13;81.09;99822.25;5058541;28;19925;-68
2021/12/07 13:21:40;;;;;;;;;;;;;;;8.14;80.81;99820.31;5066797;28;19928;-68
2021/12/07 13:24:09;;;;;;;;;;;;;;;8.13;81.07;99816.75;5066986;28;19920;-68
2021/12/07 13:26:38;;;;;;;;;;;;;;;8.12;80.43;99811.59;5064987;28;19921;-68
2021/12/07 13:29:06;;;;;;;;;;;;;;;8.08;80.74;99808.69;5058521;28;19920;-69
2021/12/07 13:31:41;;;;;;;;;;;;;;;8.12;81.10;99804.19;5067259;28;19925;-69
2021/12/07 13:34:08;;;;;;;;;;;;;;;8.01;81.27;99813.81;5061746;28;19920;-69
2021/12/07 13:36:35;;;;;;;;;;;;;;;8.08;81.19;99813.34;5058872;28;19920;-65
2021/12/07 13:39:07;;;;;;;;;;;;;;;8.08;81.16;99808.69;5075934;28;20018;-63
2021/12/07 13:41:34;;;;;;;;;;;;;;;8.15;81.11;99814.50;5058870;28;19928;-64
2021/12/07 13:44:01;;;;;;;;;;;;;;;8.47;79.80;99811.34;5058588;28;19928;-63
2021/12/07 13:46:28;;;;;;;;;;;;;;;8.20;79.94;99777.88;5064618;28;19928;-65
2021/12/07 13:49:04;;;;;;;;;;;;;;;8.48;79.54;99755.34;5056942;28;20000;-65
2021/12/07 13:51:31;;;;;;;;;;;;;;;8.32;79.52;99745.97;5059055;28;19920;-63
2021/12/07 13:54:00;;;;;;;;;;;;;;;8.17;79.82;99732.72;5074253;28;19926;-63
2021/12/07 13:56:32;;;;;;;;;;;;;;;8.30;79.75;99767.44;5059208;28;19936;-64
2021/12/07 13:59:00;;;;;;;;;;;;;;;8.43;79.34;99762.94;5076634;28;19928;-66
2021/12/07 14:01:29;;;;;;;;;;;;;;;8.56;78.77;99759.22;5071556;28;19921;-64
2021/12/07 14:03:56;;;;;;;;;;;;;;;8.58;78.53;99760.50;5058078;28;19921;-63
2021/12/07 14:06:24;;;;;;;;;;;;;;;8.60;78.22;99752.75;5059490;28;19936;-66
2021/12/07 14:08:51;;;;;;;;;;;;;;;8.48;79.11;99744.38;5056709;28;19921;-63
2021/12/07 14:11:18;;;;;;;;;;;;;;;8.72;77.94;99739.19;5058056;28;19920;-64
2021/12/07 14:13:46;;;;;;;;;;;;;;;8.68;77.81;99749.19;5061241;28;19921;-65
2021/12/07 14:16:14;;;;;;;;;;;;;;;8.55;78.18;99739.19;5055188;28;19927;-65
2021/12/07 14:18:42;;;;;;;;;;;;;;;8.65;78.09;99736.13;5066698;28;19987;-64
2021/12/07 14:21:09;;;;;;;;;;;;;;;8.56;77.97;99729.03;5059695;28;20331;-64
2021/12/07 14:23:36;;;;;;;;;;;;;;;8.57;78.67;99717.72;5057924;28;19936;-67
2021/12/07 14:26:12;;;;;;;;;;;;;;;8.50;77.98;99708.38;5057759;28;19951;-64
2021/12/07 14:28:39;;;;;;;;;;;;;;;8.66;77.96;99699.31;5060608;28;19936;-64
2021/12/07 14:31:16;;;;;;;;;;;;;;;8.56;77.48;99679.63;5069831;28;19920;-64
2021/12/07 14:33:47;;;;;;;;;;;;;;;8.58;77.66;99677.34;5057793;28;19921;-64
2021/12/07 14:36:16;;;;;;;;;;;;;;;8.64;77.44;99660.41;5060262;28;19924;-64
2021/12/07 14:38:43;;;;;;;;;;;;;;;8.56;78.12;99649.44;5063939;28;19924;-65
2021/12/07 14:41:11;;;;;;;;;;;;;;;8.62;78.45;99643.44;5060887;28;19928;-65
2021/12/07 14:43:39;;;;;;;;;;;;;;;8.56;78.02;99631.03;5064501;28;19940;-64
2021/12/07 14:46:07;;;;;;;;;;;;;;;8.64;77.98;99610.19;5063677;28;19927;-65